Abraham, Utah
Current Conditions -  °F | °C
As of 8:35 PM on Wednesday 22 Oct 2014 (Local Time) from KDTA Reporting Station
Clear Clear  
Wind Chill: 52°   Ceiling: Unl
Heat Index: 52°   Visibility: 10mi
Dew Point: 29°   Wind: 6mph
Humidity: 41%   Direction: 60°ENE
Pressure: 30.17"   Gusts: NA
Location:  39.4463°N, 112.85°W
Report Text: KDTA 230235Z AUTO 06005KT 10SM CLR 11/M02 A3017 RMK AO1 T01111018
Loading
Personal Weather Stations






























Interactive Weather Map New forecast layout! Learn more

10-Day Weather Forecast

Advertisements
Track Severe Weather on mobile